This is the latest recevied weather packets stored in our database for station/object K9ABJ. If no packets are shown the sender has not sent any weather packets the latest 10 day(s).
| Time | Temp. | Humidity | Pressure | Rain* | Wind** | Luminosity | Snow |
|---|---|---|---|---|---|---|---|
| 1787620425 | 18.33° C | 75% | 1018 hPa | 0 mm | - | 0 W/m² | - |
| 1787620121 | 18.89° C | 75% | 1017.9 hPa | 0 mm | - | 0 W/m² | - |
| 1787619822 | 18.89° C | 74% | 1017.9 hPa | 0 mm | - | 0 W/m² | - |
| 1787619517 | 18.89° C | 73% | 1018.1 hPa | 0 mm | - | 0 W/m² | - |
| 1787619212 | 19.44° C | 71% | 1017.9 hPa | 0 mm | - | 0 W/m² | - |
| 1787618911 | 20° C | 69% | 1017.7 hPa | 0 mm | - | 0 W/m² | - |
| 1787618608 | 20° C | 68% | 1018.1 hPa | 0 mm | - | 0 W/m² | - |
| 1787618305 | 20.56° C | 67% | 1018 hPa | 0 mm | - | 0 W/m² | - |
| 1787618001 | 20.56° C | 67% | 1018 hPa | 0 mm | - | 0 W/m² | - |
| 1787617695 | 20.56° C | 65% | 1017.7 hPa | 0 mm | - | 0 W/m² | - |
| 1787617395 | 21.11° C | 65% | 1017.6 hPa | 0 mm | - | 2 W/m² | - |
| 1787617094 | 21.11° C | 65% | 1017.5 hPa | 0 mm | - | 7 W/m² | - |
| 1787616790 | 21.67° C | 66% | 1017.5 hPa | 0 mm | - | 11 W/m² | - |
| 1787616490 | 21.67° C | 66% | 1017.6 hPa | 0 mm | - | 13 W/m² | - |
| 1787616188 | 21.67° C | 65% | 1017.4 hPa | 0 mm | - | 16 W/m² | - |
| 1787615887 | 22.22° C | 65% | 1017.5 hPa | 0 mm | - | 17 W/m² | - |
| 1787615582 | 22.78° C | 63% | 1017.6 hPa | 0 mm | - | 17 W/m² | - |
| 1787615278 | 22.78° C | 62% | 1017.4 hPa | 0 mm | - | 18 W/m² | - |
| 1787614974 | 22.78° C | 62% | 1017.4 hPa | 0 mm | - | 18 W/m² | - |
| 1787614670 | 22.78° C | 61% | 1017.4 hPa | 0 mm | - | 21 W/m² | - |
| 1787614366 | 23.33° C | 61% | 1017.4 hPa | 0 mm | - | 26 W/m² | - |
| 1787614063 | 23.89° C | 61% | 1017.3 hPa | 0 mm | - | 32 W/m² | - |
| 1787613759 | 24.44° C | 58% | 1017.4 hPa | 0 mm | - | 39 W/m² | - |
| 1787613459 | 25.56° C | 54% | 1017.6 hPa | 0 mm | - | 61 W/m² | - |
| 1787613154 | 27.22° C | 53% | 1017.5 hPa | 0 mm | - | 70 W/m² | - |
* Rain latest hour (hover to see other rain measurements)
** Current wind speed in m/s (hover to see current wind gust speed)